createdAt,value
2018-06-21T00:01:45.503Z,95751.95
2018-06-21T00:04:14.143Z,95750.77
2018-06-21T00:06:42.768Z,95752.10
2018-06-21T00:09:11.423Z,95753.83
2018-06-21T00:11:41.059Z,95757.72
2018-06-21T00:14:09.967Z,95767.09
2018-06-21T00:16:38.589Z,95769.66
2018-06-21T00:19:07.503Z,95770.31
2018-06-21T00:21:36.141Z,95770.67
2018-06-21T00:24:04.770Z,95765.58
2018-06-21T00:26:33.415Z,95765.41
2018-06-21T00:29:02.065Z,95762.17
2018-06-21T00:31:30.772Z,95763.55
2018-06-21T00:33:59.381Z,95761.28
2018-06-21T00:36:28.346Z,95764.07
2018-06-21T00:38:56.975Z,95766.02
2018-06-21T00:41:25.882Z,95764.50
2018-06-21T00:43:54.522Z,95758.67
2018-06-21T00:46:23.157Z,95757.71
2018-06-21T00:48:51.774Z,95761.33
2018-06-21T00:51:21.199Z,95761.95
2018-06-21T00:53:49.890Z,95758.91
2018-06-21T00:56:20.515Z,95755.28
2018-06-21T00:58:50.070Z,95749.45
2018-06-21T01:01:19.035Z,95748.37
2018-06-21T01:03:48.195Z,95748.27
2018-06-21T01:06:16.873Z,95746.89
2018-06-21T01:08:45.515Z,95749.81
2018-06-21T01:11:14.299Z,95748.97
2018-06-21T01:13:42.899Z,95754.14
2018-06-21T01:16:11.822Z,95759.91
2018-06-21T01:18:40.446Z,95759.16
2018-06-21T01:21:09.133Z,95757.19
2018-06-21T01:23:37.755Z,95756.13
2018-06-21T01:26:06.630Z,95760.87
2018-06-21T01:28:35.257Z,95756.87
2018-06-21T01:31:03.959Z,95767.06
2018-06-21T01:33:32.583Z,95767.83
2018-06-21T01:36:01.791Z,95762.68
2018-06-21T01:38:30.579Z,95767.12
2018-06-21T01:40:59.242Z,95758.41
2018-06-21T01:43:27.867Z,95755.05
2018-06-21T01:45:56.508Z,95753.27
2018-06-21T01:48:25.139Z,95751.75
2018-06-21T01:50:53.805Z,95754.78
2018-06-21T01:53:22.408Z,95752.23
2018-06-21T01:55:51.053Z,95742.38
2018-06-21T01:58:19.629Z,95738.88
2018-06-21T02:00:48.238Z,95743.70
2018-06-21T02:03:16.857Z,95740.47
2018-06-21T02:05:45.752Z,95737.41
2018-06-21T02:08:14.431Z,95735.90
2018-06-21T02:10:43.046Z,95745.66
2018-06-21T02:13:11.658Z,95744.12
2018-06-21T02:15:40.550Z,95744.44
2018-06-21T02:18:09.218Z,95741.70
2018-06-21T02:20:37.853Z,95743.07
2018-06-21T02:23:06.490Z,95738.02
2018-06-21T02:25:35.156Z,95746.48
2018-06-21T02:28:03.839Z,95742.12
2018-06-21T02:30:32.462Z,95743.27
2018-06-21T02:33:01.093Z,95740.13
2018-06-21T02:35:30.328Z,95743.56
2018-06-21T02:37:58.935Z,95741.02
2018-06-21T02:40:27.595Z,95738.67
2018-06-21T02:42:56.294Z,95736.42
2018-06-21T02:45:25.232Z,95738.83
2018-06-21T02:47:54.198Z,95733.23
2018-06-21T02:50:22.843Z,95743.41
2018-06-21T02:52:51.550Z,95741.30
2018-06-21T02:55:20.247Z,95751.87
2018-06-21T02:57:49.196Z,95741.31
2018-06-21T03:00:18.157Z,95736.75
2018-06-21T03:02:46.794Z,95736.24
2018-06-21T03:05:15.693Z,95738.05
2018-06-21T03:07:44.320Z,95735.47
2018-06-21T03:10:12.982Z,95741.00
2018-06-21T03:12:41.952Z,95740.33
2018-06-21T03:15:10.885Z,95739.30
2018-06-21T03:17:39.594Z,95739.66
2018-06-21T03:20:08.271Z,95751.05
2018-06-21T03:22:36.965Z,95735.18
2018-06-21T03:25:05.623Z,95739.64
2018-06-21T03:27:34.547Z,95741.11
2018-06-21T03:30:03.177Z,95724.71
2018-06-21T03:32:32.090Z,95730.64
2018-06-21T03:35:00.760Z,95733.72
2018-06-21T03:37:29.771Z,95737.98
2018-06-21T03:39:58.437Z,95744.48
2018-06-21T03:42:27.067Z,95747.07
2018-06-21T03:44:55.705Z,95750.20
2018-06-21T03:47:24.382Z,95749.00
2018-06-21T03:49:52.984Z,95741.69
2018-06-21T03:52:21.672Z,95737.94
2018-06-21T03:54:50.688Z,95736.38
2018-06-21T03:57:19.337Z,95732.61
2018-06-21T03:59:47.967Z,95732.05
2018-06-21T04:02:16.710Z,95725.00
2018-06-21T04:04:45.354Z,95728.62
2018-06-21T04:07:14.063Z,95727.09
2018-06-21T04:09:42.708Z,95726.59
2018-06-21T04:12:11.357Z,95732.32
2018-06-21T04:14:40.124Z,95728.31
2018-06-21T04:17:08.764Z,95735.13
2018-06-21T04:19:37.508Z,95741.16
2018-06-21T04:22:06.168Z,95739.87
2018-06-21T04:24:35.107Z,95740.09
2018-06-21T04:27:03.770Z,95735.20
2018-06-21T04:29:32.451Z,95740.52
2018-06-21T04:32:01.128Z,95732.54
2018-06-21T04:34:30.458Z,95728.44
2018-06-21T04:36:59.408Z,95726.91
2018-06-21T04:39:28.386Z,95727.88
2018-06-21T04:41:57.264Z,95735.59
2018-06-21T04:44:26.086Z,95731.48
2018-06-21T04:46:54.793Z,95736.22
2018-06-21T04:49:23.787Z,95735.09
2018-06-21T04:51:52.419Z,95732.25
2018-06-21T04:54:21.103Z,95728.66
2018-06-21T04:56:50.087Z,95735.08
2018-06-21T04:59:18.791Z,95729.20
2018-06-21T05:01:47.394Z,95731.70
2018-06-21T05:04:16.350Z,95734.67
2018-06-21T05:06:45.086Z,95737.07
2018-06-21T05:09:14.063Z,95734.86
2018-06-21T05:11:42.769Z,95731.34
2018-06-21T05:14:11.424Z,95730.13
2018-06-21T05:16:40.128Z,95732.55
2018-06-21T05:19:08.798Z,95724.34
2018-06-21T05:21:37.498Z,95727.72
2018-06-21T05:24:06.371Z,95726.78
2018-06-21T05:26:35.539Z,95721.66
2018-06-21T05:29:04.966Z,95721.50
2018-06-21T05:31:33.631Z,95727.01
2018-06-21T05:34:02.254Z,95724.09
2018-06-21T05:36:31.251Z,95719.14
2018-06-21T05:39:00.157Z,95721.62
2018-06-21T05:41:28.881Z,95714.70
2018-06-21T05:43:57.531Z,95712.66
2018-06-21T05:46:26.456Z,95704.98
2018-06-21T05:48:55.401Z,95703.20
2018-06-21T05:51:24.287Z,95708.23
2018-06-21T05:53:52.991Z,95704.14
2018-06-21T05:56:22.308Z,95712.77
2018-06-21T05:58:50.966Z,95712.09
2018-06-21T06:01:19.651Z,95710.63
2018-06-21T06:03:48.848Z,95709.98
2018-06-21T06:06:17.522Z,95704.77
2018-06-21T06:08:46.192Z,95704.13
2018-06-21T06:11:14.858Z,95707.56
2018-06-21T06:13:43.514Z,95705.50
2018-06-21T06:16:12.727Z,95701.66
2018-06-21T06:18:41.426Z,95704.24
2018-06-21T06:21:10.041Z,95696.63
2018-06-21T06:23:38.636Z,95694.00
2018-06-21T06:26:07.275Z,95688.83
2018-06-21T06:28:36.037Z,95697.25
2018-06-21T06:31:04.676Z,95694.45
2018-06-21T06:33:33.324Z,95694.34
2018-06-21T06:36:01.962Z,95693.94
2018-06-21T06:38:30.582Z,95690.69
2018-06-21T06:40:59.241Z,95685.88
2018-06-21T06:43:28.161Z,95680.88
2018-06-21T06:45:57.179Z,95676.61
2018-06-21T06:48:26.627Z,95672.19
2018-06-21T06:50:55.865Z,95678.86
2018-06-21T06:53:24.821Z,95674.09
2018-06-21T06:55:53.512Z,95680.34
2018-06-21T06:58:22.436Z,95676.17
2018-06-21T07:00:51.160Z,95673.38
2018-06-21T07:03:19.763Z,95670.30
2018-06-21T07:05:48.460Z,95666.83
2018-06-21T07:08:19.010Z,95668.47
2018-06-21T07:10:47.651Z,95664.93
2018-06-21T07:13:16.287Z,95671.05
2018-06-21T07:15:44.971Z,95659.99
2018-06-21T07:18:13.581Z,95658.52
2018-06-21T07:20:42.246Z,95658.57
2018-06-21T07:23:10.882Z,95657.22
2018-06-21T07:25:39.522Z,95657.85
2018-06-21T07:28:08.172Z,95655.30
2018-06-21T07:30:36.770Z,95651.73
2018-06-21T07:33:05.412Z,95642.03
2018-06-21T07:35:34.032Z,95644.78
2018-06-21T07:38:02.933Z,95642.44
2018-06-21T07:40:31.638Z,95637.77
2018-06-21T07:43:00.306Z,95643.33
2018-06-21T07:45:29.059Z,95638.20
2018-06-21T07:47:58.020Z,95503.23
2018-06-21T07:50:26.643Z,95631.94
2018-06-21T07:52:55.251Z,95633.02
2018-06-21T07:55:24.110Z,95636.86
2018-06-21T07:57:52.758Z,95634.59
2018-06-21T08:00:21.393Z,95630.90
2018-06-21T08:02:50.404Z,95629.70
2018-06-21T08:05:19.179Z,95630.38
2018-06-21T08:07:47.803Z,95627.22
2018-06-21T08:10:16.583Z,95620.36
2018-06-21T08:12:45.255Z,95621.83
2018-06-21T08:15:14.797Z,95613.80
2018-06-21T08:17:43.461Z,95615.89
2018-06-21T08:20:12.241Z,95611.83
2018-06-21T08:22:40.867Z,95613.91
2018-06-21T08:25:09.526Z,95612.06
2018-06-21T08:27:38.170Z,95605.77
2018-06-21T08:30:06.819Z,95605.55
2018-06-21T08:32:35.452Z,95602.25
2018-06-21T08:35:04.133Z,95600.02
2018-06-21T08:37:32.814Z,95592.77
2018-06-21T08:40:01.463Z,95594.67
2018-06-21T08:42:30.134Z,95597.28
2018-06-21T08:44:58.836Z,95586.22
2018-06-21T08:47:27.455Z,95590.63
2018-06-21T08:49:56.122Z,95587.58
2018-06-21T08:52:25.755Z,95587.77
2018-06-21T08:54:54.453Z,95579.41
2018-06-21T08:57:23.096Z,95574.09
2018-06-21T08:59:51.792Z,95576.58
2018-06-21T09:02:20.431Z,95575.36
2018-06-21T09:04:49.723Z,95574.83
2018-06-21T09:07:18.352Z,95576.12
2018-06-21T09:09:46.985Z,95566.94
2018-06-21T09:12:17.550Z,95566.48
2018-06-21T09:14:46.800Z,95563.09
2018-06-21T09:17:15.531Z,95566.02
2018-06-21T09:19:45.097Z,95563.27
2018-06-21T09:22:14.046Z,95555.97
2018-06-21T09:24:43.082Z,95558.59
2018-06-21T09:27:12.613Z,95540.27
2018-06-21T09:29:41.239Z,95534.19
2018-06-21T09:32:09.884Z,95537.48
2018-06-21T09:34:38.555Z,95533.95
2018-06-21T09:37:07.190Z,95526.30
2018-06-21T09:39:41.070Z,95521.37
2018-06-21T09:42:14.962Z,95517.00
2018-06-21T09:44:48.982Z,95521.05
2018-06-21T09:47:22.914Z,95517.52
2018-06-21T09:49:51.603Z,95513.33
2018-06-21T09:52:20.615Z,95510.64
2018-06-21T09:54:49.247Z,95508.41
2018-06-21T09:57:18.158Z,95504.89
2018-06-21T09:59:46.790Z,95513.96
2018-06-21T10:02:15.452Z,95506.92
2018-06-21T10:04:44.207Z,95508.36
2018-06-21T10:07:13.074Z,95501.20
2018-06-21T10:09:41.527Z,95514.27
2018-06-21T10:12:10.342Z,95516.05
2018-06-21T10:14:38.984Z,95510.34
2018-06-21T10:17:08.846Z,95505.86
2018-06-21T10:19:38.582Z,95498.33
2018-06-21T10:22:07.526Z,95492.05
2018-06-21T10:24:36.183Z,95485.91
2018-06-21T10:27:04.819Z,95488.94
2018-06-21T10:29:33.819Z,95478.51
2018-06-21T10:32:02.442Z,95474.76
2018-06-21T10:34:31.091Z,95471.31
2018-06-21T10:36:59.780Z,95475.57
2018-06-21T10:39:28.394Z,95480.41
2018-06-21T10:41:57.065Z,95482.55
2018-06-21T10:44:26.309Z,95470.45
2018-06-21T10:46:55.000Z,95473.72
2018-06-21T10:49:23.729Z,95462.64
2018-06-21T10:51:52.374Z,95469.28
2018-06-21T10:54:20.999Z,95467.19
2018-06-21T10:56:49.607Z,95469.02
2018-06-21T10:59:18.277Z,95470.40
2018-06-21T11:01:46.875Z,95487.52
2018-06-21T11:04:15.511Z,95496.89
2018-06-21T11:06:44.107Z,95497.53
2018-06-21T11:09:12.742Z,95486.97
2018-06-21T11:11:41.342Z,95487.30
2018-06-21T11:14:09.963Z,95484.50
2018-06-21T11:16:38.599Z,95493.95
2018-06-21T11:19:07.275Z,95503.48
2018-06-21T11:21:35.911Z,95528.99
2018-06-21T11:24:04.568Z,95526.41
2018-06-21T11:26:33.176Z,95517.39
2018-06-21T11:29:02.611Z,95501.97
2018-06-21T11:31:31.191Z,95507.33
2018-06-21T11:33:59.766Z,95503.50
2018-06-21T11:36:28.403Z,95491.79
2018-06-21T11:38:56.990Z,95484.98
2018-06-21T11:41:25.695Z,95469.75
2018-06-21T11:43:54.342Z,95469.75
2018-06-21T11:46:22.974Z,95467.34
2018-06-21T11:48:51.643Z,95451.67
2018-06-21T11:51:20.239Z,95449.25
2018-06-21T11:53:48.873Z,95436.80
2018-06-21T11:56:17.480Z,95437.61
2018-06-21T11:58:46.066Z,95430.73
2018-06-21T12:01:14.691Z,95433.36
2018-06-21T12:03:43.359Z,95435.96
2018-06-21T12:06:12.147Z,95449.12
2018-06-21T12:08:40.892Z,95459.30
2018-06-21T12:11:09.523Z,95454.20
2018-06-21T12:13:38.412Z,95419.27
2018-06-21T12:16:07.539Z,95446.06
2018-06-21T12:18:36.124Z,95446.35
2018-06-21T12:21:04.717Z,95436.44
2018-06-21T12:23:33.355Z,95439.84
2018-06-21T12:26:02.044Z,95434.11
2018-06-21T12:28:30.720Z,95437.53
2018-06-21T12:30:59.436Z,95428.68
2018-06-21T12:33:28.043Z,95435.70
2018-06-21T12:35:56.632Z,95437.98
2018-06-21T12:38:25.233Z,95432.77
2018-06-21T12:40:53.822Z,95433.95
2018-06-21T12:43:22.502Z,95427.60
2018-06-21T12:45:51.172Z,95430.27
2018-06-21T12:48:19.765Z,95432.28
2018-06-21T12:50:48.432Z,95432.36
2018-06-21T12:53:17.426Z,95414.58
2018-06-21T12:55:46.040Z,95421.87
2018-06-21T12:58:14.629Z,95418.53
2018-06-21T13:00:43.366Z,95418.66
2018-06-21T13:03:13.013Z,95420.59
2018-06-21T13:05:41.719Z,95269.09
2018-06-21T13:08:10.913Z,95406.83
2018-06-21T13:10:50.807Z,95408.20
2018-06-21T13:13:26.792Z,95406.55
2018-06-21T13:15:55.628Z,95398.79
2018-06-21T13:18:24.563Z,95404.09
2018-06-21T13:20:53.487Z,95390.91
2018-06-21T13:23:22.683Z,95385.49
2018-06-21T13:25:52.170Z,95386.77
2018-06-21T13:28:22.691Z,95348.98
2018-06-21T13:30:51.895Z,95385.38
2018-06-21T13:33:20.868Z,95380.41
2018-06-21T13:35:49.710Z,95363.65
2018-06-21T13:38:19.627Z,95364.61
2018-06-21T13:40:48.450Z,95364.27
2018-06-21T13:43:17.312Z,95369.34
2018-06-21T13:45:46.302Z,95365.04
2018-06-21T13:48:15.108Z,95368.05
2018-06-21T13:50:44.263Z,95369.03
2018-06-21T13:53:13.498Z,95370.84
2018-06-21T13:55:42.287Z,95370.91
2018-06-21T13:58:11.239Z,95378.55
2018-06-21T14:00:40.215Z,95365.81
2018-06-21T14:03:09.300Z,95359.48
2018-06-21T14:05:38.274Z,95359.91
2018-06-21T14:08:07.410Z,95359.45
2018-06-21T14:10:37.830Z,95359.34
2018-06-21T14:13:06.790Z,95359.11
2018-06-21T14:15:36.758Z,95355.45
2018-06-21T14:18:05.602Z,95358.16
2018-06-21T14:20:34.812Z,95351.96
2018-06-21T14:23:03.739Z,95351.72
2018-06-21T14:25:32.452Z,95340.47
2018-06-21T14:28:01.231Z,95339.12
2018-06-21T14:30:29.983Z,95338.84
2018-06-21T14:32:58.655Z,95335.51
2018-06-21T14:35:28.048Z,95340.13
2018-06-21T14:37:56.786Z,95341.33
2018-06-21T14:40:25.727Z,95350.38
2018-06-21T14:42:54.346Z,95350.65
2018-06-21T14:45:23.336Z,95355.74
2018-06-21T14:47:52.085Z,95364.12
2018-06-21T14:50:20.858Z,95357.05
2018-06-21T14:52:49.571Z,95351.94
2018-06-21T14:55:18.719Z,95351.77
2018-06-21T14:57:47.673Z,95344.86
2018-06-21T15:00:16.683Z,95349.91
2018-06-21T15:02:46.022Z,95241.56
2018-06-21T15:05:14.896Z,95127.27
2018-06-21T15:07:43.867Z,95350.26
2018-06-21T15:10:13.210Z,95352.88
2018-06-21T15:12:42.276Z,95359.28
2018-06-21T15:15:11.528Z,95349.25
2018-06-21T15:17:40.766Z,95344.66
2018-06-21T15:20:09.796Z,95334.01
2018-06-21T15:22:38.967Z,95331.44
2018-06-21T15:25:07.968Z,95322.88
2018-06-21T15:27:36.988Z,95316.45
2018-06-21T15:30:06.313Z,95313.62
2018-06-21T15:32:35.228Z,95309.09
2018-06-21T15:35:04.060Z,95296.93
2018-06-21T15:37:33.180Z,95296.59
2018-06-21T15:40:02.274Z,95290.71
2018-06-21T15:42:31.813Z,95279.40
2018-06-21T15:45:00.787Z,95282.48
2018-06-21T15:47:29.956Z,95270.27
2018-06-21T15:49:59.002Z,95272.09
2018-06-21T15:52:27.967Z,95267.95
2018-06-21T15:54:57.005Z,95263.41
2018-06-21T15:57:25.910Z,95194.98
2018-06-21T15:59:54.776Z,95274.20
2018-06-21T16:02:23.671Z,95204.40
2018-06-21T16:04:52.681Z,95281.88
2018-06-21T16:07:21.891Z,95287.20
2018-06-21T16:09:51.342Z,95290.75
2018-06-21T16:12:20.308Z,95295.69
2018-06-21T16:14:49.539Z,95299.33
2018-06-21T16:17:18.551Z,95300.84
2018-06-21T16:19:49.166Z,95306.92
2018-06-21T16:22:19.395Z,95312.69
2018-06-21T16:24:48.167Z,95326.75
2018-06-21T16:27:16.961Z,95329.76
2018-06-21T16:29:46.150Z,95337.88
2018-06-21T16:32:15.190Z,95296.16
2018-06-21T16:34:44.199Z,95359.03
2018-06-21T16:37:13.230Z,95358.14
2018-06-21T16:39:42.333Z,95352.59
2018-06-21T16:42:12.075Z,95353.48
2018-06-21T16:44:40.949Z,95355.62
2018-06-21T16:47:10.029Z,95354.53
2018-06-21T16:49:38.669Z,95355.53
2018-06-21T16:52:07.411Z,95351.09
2018-06-21T16:54:36.061Z,95347.20
2018-06-21T16:57:04.814Z,95351.64
2018-06-21T16:59:33.434Z,95353.97
2018-06-21T17:02:02.612Z,95352.83
2018-06-21T17:04:31.192Z,95352.63
2018-06-21T17:06:59.903Z,95355.73
2018-06-21T17:09:28.553Z,95350.77
2018-06-21T17:11:57.138Z,95347.47
2018-06-21T17:14:25.855Z,95339.30
2018-06-21T17:16:54.649Z,95341.72
2018-06-21T17:19:23.290Z,95337.60
2018-06-21T17:21:52.299Z,95333.11
2018-06-21T17:24:21.202Z,95334.13
2018-06-21T17:26:49.798Z,95335.54
2018-06-21T17:29:18.459Z,95337.24
2018-06-21T17:31:47.067Z,95333.66
2018-06-21T17:34:15.996Z,95340.00
2018-06-21T17:36:44.652Z,95332.55
2018-06-21T17:39:13.242Z,95339.31
2018-06-21T17:41:41.926Z,95335.14
2018-06-21T17:44:10.503Z,95340.69
2018-06-21T17:46:39.099Z,95339.01
2018-06-21T17:49:08.067Z,95325.13
2018-06-21T17:51:36.691Z,95317.75
2018-06-21T17:54:05.486Z,95322.17
2018-06-21T17:56:34.223Z,95321.44
2018-06-21T17:59:02.946Z,95324.28
2018-06-21T18:01:31.628Z,95328.23
2018-06-21T18:04:01.043Z,95329.16
2018-06-21T18:06:29.621Z,95325.66
2018-06-21T18:08:58.264Z,95322.98
2018-06-21T18:11:26.861Z,95325.98
2018-06-21T18:13:55.541Z,95326.49
2018-06-21T18:16:24.141Z,95317.11
2018-06-21T18:18:52.807Z,95318.54
2018-06-21T18:21:21.454Z,95323.05
2018-06-21T18:23:51.119Z,95320.36
2018-06-21T18:26:19.831Z,95317.68
2018-06-21T18:28:48.729Z,95322.41
2018-06-21T18:31:17.811Z,95322.83
2018-06-21T18:33:46.488Z,95319.72
2018-06-21T18:36:15.112Z,95318.93
2018-06-21T18:38:43.724Z,95331.91
2018-06-21T18:41:12.790Z,95321.72
2018-06-21T18:43:41.891Z,95331.63
2018-06-21T18:46:11.237Z,95326.17
2018-06-21T18:48:40.020Z,95335.08
2018-06-21T18:51:08.864Z,95341.95
2018-06-21T18:53:37.528Z,95348.25
2018-06-21T18:56:06.337Z,95350.64
2018-06-21T18:58:35.009Z,95351.33
2018-06-21T19:01:04.619Z,95355.50
2018-06-21T19:03:33.353Z,95353.80
2018-06-21T19:06:02.552Z,95354.02
2018-06-21T19:08:36.478Z,95351.28
2018-06-21T19:11:11.942Z,95361.34
2018-06-21T19:13:44.559Z,95362.91
2018-06-21T19:16:14.164Z,95371.56
2018-06-21T19:18:42.941Z,95367.69
2018-06-21T19:21:12.168Z,95367.56
2018-06-21T19:23:40.938Z,95367.39
2018-06-21T19:26:10.266Z,95369.62
2018-06-21T19:28:39.404Z,95375.92
2018-06-21T19:31:08.143Z,95382.20
2018-06-21T19:33:36.791Z,95379.86
2018-06-21T19:36:05.612Z,95388.70
2018-06-21T19:38:34.247Z,95383.03
2018-06-21T19:41:02.878Z,95376.00
2018-06-21T19:43:31.541Z,95376.17
2018-06-21T19:46:00.178Z,95379.52
2018-06-21T19:48:28.859Z,95376.01
2018-06-21T19:50:57.664Z,95371.51
2018-06-21T19:53:26.282Z,95372.49
2018-06-21T19:55:54.914Z,95382.48
2018-06-21T19:58:23.756Z,95371.69
2018-06-21T20:00:52.384Z,95380.71
2018-06-21T20:03:21.203Z,95372.07
2018-06-21T20:05:49.731Z,95375.42
2018-06-21T20:08:18.842Z,95369.33
2018-06-21T20:10:51.748Z,95375.45
2018-06-21T20:13:20.536Z,95373.27
2018-06-21T20:15:52.608Z,95368.14
2018-06-21T20:18:22.380Z,95367.39
2018-06-21T20:20:51.154Z,95360.70
2018-06-21T20:23:20.818Z,95361.28
2018-06-21T20:25:49.849Z,95355.60
2018-06-21T20:28:18.492Z,95358.31
2018-06-21T20:30:47.146Z,95358.31
2018-06-21T20:33:15.788Z,95352.42
2018-06-21T20:35:44.696Z,95350.61
2018-06-21T20:38:13.650Z,95353.67
2018-06-21T20:40:42.234Z,95348.66
2018-06-21T20:43:11.504Z,95339.31
2018-06-21T20:45:40.840Z,95342.31
2018-06-21T20:48:09.630Z,95341.92
2018-06-21T20:50:38.930Z,95344.23
2018-06-21T20:53:07.502Z,95343.25
2018-06-21T20:55:36.903Z,95340.28
2018-06-21T20:58:05.526Z,95337.13
2018-06-21T21:00:34.200Z,95344.71
2018-06-21T21:03:02.868Z,95350.23
2018-06-21T21:05:31.553Z,95353.53
2018-06-21T21:08:00.163Z,95341.31
2018-06-21T21:10:28.780Z,95344.64
2018-06-21T21:12:57.570Z,95340.94
2018-06-21T21:15:26.248Z,95334.86
2018-06-21T21:17:54.863Z,95329.27
2018-06-21T21:20:23.443Z,95335.02
2018-06-21T21:22:52.420Z,95333.66
2018-06-21T21:25:21.030Z,95335.02
2018-06-21T21:27:49.990Z,95331.92
2018-06-21T21:30:18.880Z,95327.45
2018-06-21T21:32:47.546Z,95324.50
2018-06-21T21:35:16.132Z,95328.44
2018-06-21T21:37:44.725Z,95321.02
2018-06-21T21:40:13.360Z,95324.53
2018-06-21T21:42:41.997Z,95320.28
2018-06-21T21:45:10.608Z,95315.37
2018-06-21T21:47:39.195Z,95312.47
2018-06-21T21:50:08.290Z,95325.58
2018-06-21T21:52:36.985Z,95321.48
2018-06-21T21:55:05.631Z,95319.50
2018-06-21T21:57:34.278Z,95326.14
2018-06-21T22:00:03.202Z,95312.27
2018-06-21T22:02:31.807Z,95320.11
2018-06-21T22:05:01.911Z,95327.32
2018-06-21T22:07:30.906Z,95317.13
2018-06-21T22:09:59.493Z,95320.47
2018-06-21T22:12:28.127Z,95317.55
2018-06-21T22:14:56.760Z,95315.38
2018-06-21T22:17:25.465Z,95313.20
2018-06-21T22:19:54.108Z,95318.08
2018-06-21T22:22:22.805Z,95315.91
2018-06-21T22:24:51.388Z,95317.05
2018-06-21T22:27:19.962Z,95280.18
2018-06-21T22:29:48.571Z,95302.68
2018-06-21T22:32:17.169Z,95299.34
2018-06-21T22:34:45.828Z,95294.06
2018-06-21T22:37:14.370Z,95296.59
2018-06-21T22:39:43.026Z,95294.41
2018-06-21T22:42:11.671Z,95299.59
2018-06-21T22:44:40.269Z,95298.59
2018-06-21T22:47:08.864Z,95296.00
2018-06-21T22:49:37.523Z,95300.10
2018-06-21T22:52:06.461Z,95303.23
2018-06-21T22:54:35.100Z,95300.17
2018-06-21T22:57:03.722Z,95294.52
2018-06-21T22:59:32.348Z,95304.38
2018-06-21T23:02:00.905Z,95305.96
2018-06-21T23:04:29.552Z,95306.93
2018-06-21T23:06:58.200Z,95297.80
2018-06-21T23:09:27.012Z,95296.97
2018-06-21T23:11:55.590Z,95290.54
2018-06-21T23:14:24.218Z,95297.04
2018-06-21T23:16:55.158Z,95286.66
2018-06-21T23:19:29.931Z,95298.34
2018-06-21T23:21:58.931Z,95291.91
2018-06-21T23:24:27.819Z,95291.69
2018-06-21T23:26:56.443Z,95292.45
2018-06-21T23:29:25.276Z,95253.83
2018-06-21T23:31:53.883Z,95297.11
2018-06-21T23:34:23.204Z,95292.27
2018-06-21T23:36:52.068Z,95297.01
2018-06-21T23:39:20.671Z,95300.17
2018-06-21T23:41:49.363Z,95296.65
2018-06-21T23:44:17.948Z,95298.63
2018-06-21T23:46:46.557Z,95291.76
2018-06-21T23:49:15.203Z,95290.75
2018-06-21T23:51:43.778Z,95293.61
2018-06-21T23:54:13.584Z,95296.52
2018-06-21T23:56:43.163Z,95298.58
2018-06-21T23:59:11.875Z,95289.41
